EVLA/LPX METAR and TAF weather

Enter ICAO airport designator
Station Type Date Time Source
EVLA METAR 2021/09/25 11:50 UTC NOAA

EVLA 251150Z AUTO 29010KT 260V320 9999 FEW019/// 16/11 Q1005


Station Type Date Time Source
EVLA Decoded METAR 2021/09/25 11:50 UTC NOAA

Liepaja International Airport, Latvia (EVLA) 56-31N 021-05E
Sep 25, 2021 - 07:50 AM EDT / 2021.09.25 1150 UTC
Wind: from the WNW (290 degrees) at 12 MPH (10 KT) (direction variable):0
Visibility: greater than 7 mile(s):0
Sky conditions: mostly clear
Temperature: 60 F (16 C)
Dew Point: 51 F (11 C)
Relative Humidity: 72%
Pressure (altimeter): 29.68 in. Hg (1005 hPa)
ob: EVLA 251150Z AUTO 29010KT 260V320 9999 FEW019/// 16/11 Q1005
cycle: 12

Station Type Date Time Source
EVLA TAF 2021/09/25 12:09 UTC NOAA

TAF EVLA 251106Z 2512/2612 31012KT 9999 SCT020
BECMG 2519/2521 VRB02KT
TEMPO 2519/2606 0500 FG VV001

Example: see airport list